Forside
METAR-TAF:

METAR-TAF

Lufthavne :

Jersey,

Breddekreds: 49-13N, længdekreds: 002-12W, højde: 84 m

Aktuelle vejr

Denne rapport blev lavet for 38 minutter siden, kl. 13:20 UTC
Vind 15 kt fra østnordøst, varierende mellem nordnordøst og øst
Temperatur 9°C
Fugtighed 57%
Tryk 1027 hPa
Sigt 10 km eller mere
Nogle få skyer i en højde af 2800 ft

METAR: EGJJ 311320Z 06015KT 030V090 9999 FEW028 09/01 Q1027

Tid: 14:58 (13:58 UTC)

Vejrudsigter

Denne rapport blev lavet for 3 timer og 6 minutter siden, kl. 10:52 UTC
Foreløbig gælder fra 31 på 12 UTC til 31 på 21 UTC
Vind 14 kt fra østnordøst
Sigt 10 km eller mere
Nogle få skyer i en højde af 2000 ft

TAF: EGJJ 311052Z 3112/3121 06014KT 9999 FEW020

Vejrobservationer og prognoser fra mere end 4000 lufthavne (METAR og TAF).

De gule og røde prikker repræsenterer de meteorologiske stationer.

Flyt musen over at se navnet på stationen.

Så klik over at se vejr observationer og prognoser.

At skifte det kort: Klik på de grønne knapper med et sort kors for at zoome ind; på den grønne knap med en bindestreg for at zoome ud; eller på de grønne pile for tilstødende kort.


METAR-TAF: